Moby Baby — ICEM — position and weather

sailwx.info

Track history (hours):
 
Tides and Currents Weather Stations Pressure Air Temp Water Temp Dewpoint Dewpoint Depression Visibility Wind Speed Wind Dir Waves Ship Positions

Moby Baby

Last reported at 2016-May-29 12:33 UTC. Time now 2016-May-30 06:52 UTC.
Position N 42°53' E 010°25'.

Length 99 m; draft 4.5 m.

Type: Ship. MMSI: 247049900.

Date/timePositionNaut miles runAvg speedWind from/ knotsBaromVisibWave heightAir tempDewpointWater temp
2016-May-29 12:33N 42°53' E 010°25'6 1.1
2016-May-29 07:10N 42°49' E 010°20'0 0.1
2016-May-29 04:04N 42°49' E 010°19'0 0.0
2016-May-29 03:32N 42°49' E 010°19'0 0.0
2016-May-29 02:33N 42°49' E 010°19'0 0.0
2016-May-29 01:33N 42°49' E 010°19'0 0.0
2016-May-29 00:31N 42°49' E 010°19'0 0.0
2016-May-28 23:33N 42°49' E 010°19'0 0.0
2016-May-28 22:33N 42°49' E 010°19'0 0.0
2016-May-28 21:32N 42°49' E 010°19'0 0.0
2016-May-28 20:29N 42°49' E 010°19'0 0.0
2016-May-28 19:33N 42°49' E 010°19'1312.7
2016-May-28 18:33N 42°56' E 010°33'7 6.7
2016-May-28 17:33N 42°53' E 010°25'6 6.0
2016-May-28 16:33N 42°49' E 010°19'6 5.6
2016-May-28 15:34N 42°53' E 010°25'7 6.9
2016-May-28 14:33N 42°56' E 010°33'1212.3
2016-May-28 13:33N 42°49' E 010°19'6 6.3
2016-May-28 12:33N 42°53' E 010°25'6 3.0
2016-May-28 10:33N 42°56' E 010°33'0 0.1
2016-May-28 09:33N 42°56' E 010°33'1212.3
2016-May-28 08:33N 42°49' E 010°19'0 0.1
2016-May-28 07:33N 42°49' E 010°19'8 8.5
2016-May-28 06:34N 42°54' E 010°29'4 3.8
2016-May-28 05:32N 42°56' E 010°33'1212.4
2016-May-28 04:33N 42°49' E 010°19'0 0.0
2016-May-28 01:33N 42°49' E 010°19'0 0.0
2016-May-28 00:33N 42°49' E 010°19'0 0.0
2016-May-27 23:32N 42°49' E 010°19'0 0.0
2016-May-27 20:19N 42°49' E 010°19'0 0.1
2016-May-27 19:31N 42°49' E 010°19'6 3.2
2016-May-27 17:33N 42°53' E 010°26'6 6.3
2016-May-27 16:33N 42°49' E 010°19'7 7.0
2016-May-27 15:33N 42°53' E 010°26'6 5.5
2016-May-27 14:29N 42°56' E 010°34'1313.6
2016-May-27 13:33N 42°49' E 010°19'7 7.4
2016-May-27 12:33N 42°54' E 010°27'5 1.7
2016-May-27 09:31N 42°56' E 010°33'1212.6
2016-May-27 08:33N 42°49' E 010°19'0 0.1
2016-May-27 07:33N 42°49' E 010°19'9 9.3
2016-May-27 06:33N 42°54' E 010°30'3 3.0
2016-May-27 05:33N 42°56' E 010°33'1212.3
2016-May-27 04:33N 42°49' E 010°19'0 0.0
2016-May-27 03:33N 42°49' E 010°19'0 0.0
2016-May-27 02:33N 42°49' E 010°19'0 0.0
2016-May-27 01:33N 42°49' E 010°19'0 0.0
2016-May-27 00:33N 42°49' E 010°19'0 0.0
2016-May-26 23:33N 42°49' E 010°19'0 0.0
2016-May-26 22:31N 42°49' E 010°19'0 0.0
2016-May-26 21:33N 42°49' E 010°19'0 0.0
2016-May-26 20:33N 42°49' E 010°19'0 0.0
2016-May-26 19:29N 42°49' E 010°19'1313.7
2016-May-26 18:33N 42°56' E 010°34'7 7.2
2016-May-26 17:34N 42°53' E 010°25'6 5.8
2016-May-26 16:33N 42°49' E 010°19'6 6.3
2016-May-26 15:33N 42°53' E 010°25'6 6.1
2016-May-26 14:33N 42°56' E 010°33'1212.2
2016-May-26 13:32N 42°49' E 010°19'7 7.1
2016-May-26 12:33N 42°53' E 010°26'7 1.4
2016-May-26 07:32N 42°49' E 010°19'0 0.0
2016-May-26 01:27N 42°49' E 010°19'0 0.0
2016-May-26 00:33N 42°49' E 010°19'0 0.0
2016-May-25 23:33N 42°49' E 010°19'0 0.0
2016-May-25 22:30N 42°49' E 010°19'0 0.0
2016-May-25 21:33N 42°49' E 010°19'0 0.0
2016-May-25 20:33N 42°49' E 010°19'0 0.0
2016-May-25 19:33N 42°49' E 010°19'1312.4
2016-May-25 18:33N 42°56' E 010°33'7 7.4
2016-May-25 17:33N 42°53' E 010°24'5 4.9
2016-May-25 16:28N 42°49' E 010°19'8 7.6
2016-May-25 15:24N 42°54' E 010°28'5 5.4
2016-May-25 14:33N 42°56' E 010°33'4 0.1
2016-May-24 09:08N 42°53' E 010°29'814.3
2016-May-24 08:33N 42°49' E 010°20'0 0.0
2016-May-23 03:07N 42°49' E 010°19'0 0.0
2016-May-23 02:33N 42°49' E 010°19'0 0.0
2016-May-23 00:33N 42°49' E 010°19'0 0.0
2016-May-22 23:31N 42°49' E 010°19'0 0.0
2016-May-22 22:30N 42°49' E 010°19'0 0.0
2016-May-22 21:32N 42°49' E 010°19'0 0.0
2016-May-22 20:33N 42°49' E 010°19'0 0.2
2016-May-22 19:26N 42°49' E 010°20'1314.6
2016-May-22 18:34N 42°56' E 010°34'7 7.3
2016-May-22 17:33N 42°53' E 010°25'6 5.7
2016-May-22 16:34N 42°49' E 010°19'6 6.4
2016-May-22 15:34N 42°53' E 010°26'6 6.0
2016-May-22 14:31N 42°56' E 010°33'6 3.1
2016-May-22 12:33N 42°53' E 010°26'6 2.1
2016-May-22 09:32N 42°56' E 010°33'1312.8
2016-May-22 08:33N 42°49' E 010°19'0 0.1
2016-May-22 07:34N 42°49' E 010°19'9 8.6
2016-May-22 06:33N 42°54' E 010°29'4 4.2
2016-May-22 05:33N 42°56' E 010°34'1312.8
2016-May-22 04:33N 42°49' E 010°19'0 0.0
2016-May-22 03:26N 42°49' E 010°19'0 0.0
2016-May-22 00:03N 42°49' E 010°19'0 0.0
2016-May-21 23:29N 42°49' E 010°19'0 0.0
2016-May-21 22:31N 42°49' E 010°19'0 0.0
2016-May-21 21:33N 42°49' E 010°19'0 0.0
2016-May-21 20:33N 42°49' E 010°19'0 0.0
2016-May-21 19:33N 42°49' E 010°19'1312.8
2016-May-21 18:34N 42°56' E 010°34'7 7.0
2016-May-21 17:33N 42°53' E 010°25'6 5.9
2016-May-21 16:33N 42°49' E 010°19'6 6.1
2016-May-21 15:34N 42°53' E 010°25'7 6.7
2016-May-21 14:33N 42°56' E 010°34'1312.8
2016-May-21 13:33N 42°49' E 010°19'6 6.3
2016-May-21 12:34N 42°53' E 010°26'6 2.1
2016-May-21 09:34N 42°56' E 010°33'1312.6
2016-May-21 08:33N 42°49' E 010°19'0 0.0
2016-May-21 07:33N 42°49' E 010°19'9 8.6
2016-May-21 06:34N 42°53' E 010°29'4 3.7
2016-May-21 05:32N 42°56' E 010°33'1212.6
2016-May-21 04:33N 42°49' E 010°19'0 0.1
2016-May-21 02:33N 42°49' E 010°19'0 0.0
2016-May-21 01:30N 42°49' E 010°19'0 0.0
2016-May-21 00:29N 42°49' E 010°19'0 0.0
2016-May-20 23:33N 42°49' E 010°19'0 0.0
2016-May-20 22:33N 42°49' E 010°19'0 0.0
2016-May-20 21:19N 42°49' E 010°19'0 0.1
2016-May-20 19:28N 42°49' E 010°20'1314.0
2016-May-20 18:33N 42°56' E 010°34'7 7.0
2016-May-20 17:34N 42°53' E 010°25'6 6.0
2016-May-20 16:33N 42°49' E 010°19'6 6.2
2016-May-20 15:33N 42°53' E 010°26'3 2.9
2016-May-20 14:20N 42°54' E 010°30'3 0.6
2016-May-20 09:32N 42°56' E 010°33'1312.5
2016-May-20 08:32N 42°49' E 010°19'0 0.3
2016-May-20 07:09N 42°48' E 010°20'12 1.0
2016-May-19 18:08N 42°56' E 010°33'813.8
2016-May-19 17:32N 42°53' E 010°23'  
Track history (hours):
 
Tides and Currents Weather Stations Pressure Air Temp Water Temp Dewpoint Dewpoint Depression Visibility Wind Speed Wind Dir Waves Ship Positions

Moby Baby

Last reported at 2016-May-29 12:33 UTC. Time now 2016-May-30 06:52 UTC.
Position N 42°53' E 010°25'.

Length 99 m; draft 4.5 m.

Type: Ship. MMSI: 247049900.

Date/timePositionNaut miles runAvg speedWind from/ knotsBaromVisibWave heightAir tempDewpointWater temp
2016-May-29 12:33N 42°53' E 010°25'6 1.1
2016-May-29 07:10N 42°49' E 010°20'0 0.1
2016-May-29 04:04N 42°49' E 010°19'0 0.0
2016-May-29 03:32N 42°49' E 010°19'0 0.0
2016-May-29 02:33N 42°49' E 010°19'0 0.0
2016-May-29 01:33N 42°49' E 010°19'0 0.0
2016-May-29 00:31N 42°49' E 010°19'0 0.0
2016-May-28 23:33N 42°49' E 010°19'0 0.0
2016-May-28 22:33N 42°49' E 010°19'0 0.0
2016-May-28 21:32N 42°49' E 010°19'0 0.0
2016-May-28 20:29N 42°49' E 010°19'0 0.0
2016-May-28 19:33N 42°49' E 010°19'1312.7
2016-May-28 18:33N 42°56' E 010°33'7 6.7
2016-May-28 17:33N 42°53' E 010°25'6 6.0
2016-May-28 16:33N 42°49' E 010°19'6 5.6
2016-May-28 15:34N 42°53' E 010°25'7 6.9
2016-May-28 14:33N 42°56' E 010°33'1212.3
2016-May-28 13:33N 42°49' E 010°19'6 6.3
2016-May-28 12:33N 42°53' E 010°25'6 3.0
2016-May-28 10:33N 42°56' E 010°33'0 0.1
2016-May-28 09:33N 42°56' E 010°33'1212.3
2016-May-28 08:33N 42°49' E 010°19'0 0.1
2016-May-28 07:33N 42°49' E 010°19'8 8.5
2016-May-28 06:34N 42°54' E 010°29'4 3.8
2016-May-28 05:32N 42°56' E 010°33'1212.4
2016-May-28 04:33N 42°49' E 010°19'0 0.0
2016-May-28 01:33N 42°49' E 010°19'0 0.0
2016-May-28 00:33N 42°49' E 010°19'0 0.0
2016-May-27 23:32N 42°49' E 010°19'0 0.0
2016-May-27 20:19N 42°49' E 010°19'0 0.1
2016-May-27 19:31N 42°49' E 010°19'6 3.2
2016-May-27 17:33N 42°53' E 010°26'6 6.3
2016-May-27 16:33N 42°49' E 010°19'7 7.0
2016-May-27 15:33N 42°53' E 010°26'6 5.5
2016-May-27 14:29N 42°56' E 010°34'1313.6
2016-May-27 13:33N 42°49' E 010°19'7 7.4
2016-May-27 12:33N 42°54' E 010°27'5 1.7
2016-May-27 09:31N 42°56' E 010°33'1212.6
2016-May-27 08:33N 42°49' E 010°19'0 0.1
2016-May-27 07:33N 42°49' E 010°19'9 9.3
2016-May-27 06:33N 42°54' E 010°30'3 3.0
2016-May-27 05:33N 42°56' E 010°33'1212.3
2016-May-27 04:33N 42°49' E 010°19'0 0.0
2016-May-27 03:33N 42°49' E 010°19'0 0.0
2016-May-27 02:33N 42°49' E 010°19'0 0.0
2016-May-27 01:33N 42°49' E 010°19'0 0.0
2016-May-27 00:33N 42°49' E 010°19'0 0.0
2016-May-26 23:33N 42°49' E 010°19'0 0.0
2016-May-26 22:31N 42°49' E 010°19'0 0.0
2016-May-26 21:33N 42°49' E 010°19'0 0.0
2016-May-26 20:33N 42°49' E 010°19'0 0.0
2016-May-26 19:29N 42°49' E 010°19'1313.7
2016-May-26 18:33N 42°56' E 010°34'7 7.2
2016-May-26 17:34N 42°53' E 010°25'6 5.8
2016-May-26 16:33N 42°49' E 010°19'6 6.3
2016-May-26 15:33N 42°53' E 010°25'6 6.1
2016-May-26 14:33N 42°56' E 010°33'1212.2
2016-May-26 13:32N 42°49' E 010°19'7 7.1
2016-May-26 12:33N 42°53' E 010°26'7 1.4
2016-May-26 07:32N 42°49' E 010°19'0 0.0
2016-May-26 01:27N 42°49' E 010°19'0 0.0
2016-May-26 00:33N 42°49' E 010°19'0 0.0
2016-May-25 23:33N 42°49' E 010°19'0 0.0
2016-May-25 22:30N 42°49' E 010°19'0 0.0
2016-May-25 21:33N 42°49' E 010°19'0 0.0
2016-May-25 20:33N 42°49' E 010°19'0 0.0
2016-May-25 19:33N 42°49' E 010°19'1312.4
2016-May-25 18:33N 42°56' E 010°33'7 7.4
2016-May-25 17:33N 42°53' E 010°24'5 4.9
2016-May-25 16:28N 42°49' E 010°19'8 7.6
2016-May-25 15:24N 42°54' E 010°28'5 5.4
2016-May-25 14:33N 42°56' E 010°33'4 0.1
2016-May-24 09:08N 42°53' E 010°29'814.3
2016-May-24 08:33N 42°49' E 010°20'0 0.0
2016-May-23 03:07N 42°49' E 010°19'0 0.0
2016-May-23 02:33N 42°49' E 010°19'0 0.0
2016-May-23 00:33N 42°49' E 010°19'0 0.0
2016-May-22 23:31N 42°49' E 010°19'0 0.0
2016-May-22 22:30N 42°49' E 010°19'0 0.0
2016-May-22 21:32N 42°49' E 010°19'0 0.0
2016-May-22 20:33N 42°49' E 010°19'0 0.2
2016-May-22 19:26N 42°49' E 010°20'1314.6
2016-May-22 18:34N 42°56' E 010°34'7 7.3
2016-May-22 17:33N 42°53' E 010°25'6 5.7
2016-May-22 16:34N 42°49' E 010°19'6 6.4
2016-May-22 15:34N 42°53' E 010°26'6 6.0
2016-May-22 14:31N 42°56' E 010°33'6 3.1
2016-May-22 12:33N 42°53' E 010°26'6 2.1
2016-May-22 09:32N 42°56' E 010°33'1312.8
2016-May-22 08:33N 42°49' E 010°19'0 0.1
2016-May-22 07:34N 42°49' E 010°19'9 8.6
2016-May-22 06:33N 42°54' E 010°29'4 4.2
2016-May-22 05:33N 42°56' E 010°34'1312.8
2016-May-22 04:33N 42°49' E 010°19'0 0.0
2016-May-22 03:26N 42°49' E 010°19'0 0.0
2016-May-22 00:03N 42°49' E 010°19'0 0.0
2016-May-21 23:29N 42°49' E 010°19'0 0.0
2016-May-21 22:31N 42°49' E 010°19'0 0.0
2016-May-21 21:33N 42°49' E 010°19'0 0.0
2016-May-21 20:33N 42°49' E 010°19'0 0.0
2016-May-21 19:33N 42°49' E 010°19'1312.8
2016-May-21 18:34N 42°56' E 010°34'7 7.0
2016-May-21 17:33N 42°53' E 010°25'6 5.9
2016-May-21 16:33N 42°49' E 010°19'6 6.1
2016-May-21 15:34N 42°53' E 010°25'7 6.7
2016-May-21 14:33N 42°56' E 010°34'1312.8
2016-May-21 13:33N 42°49' E 010°19'6 6.3
2016-May-21 12:34N 42°53' E 010°26'6 2.1
2016-May-21 09:34N 42°56' E 010°33'1312.6
2016-May-21 08:33N 42°49' E 010°19'0 0.0
2016-May-21 07:33N 42°49' E 010°19'9 8.6
2016-May-21 06:34N 42°53' E 010°29'4 3.7
2016-May-21 05:32N 42°56' E 010°33'1212.6
2016-May-21 04:33N 42°49' E 010°19'0 0.1
2016-May-21 02:33N 42°49' E 010°19'0 0.0
2016-May-21 01:30N 42°49' E 010°19'0 0.0
2016-May-21 00:29N 42°49' E 010°19'0 0.0
2016-May-20 23:33N 42°49' E 010°19'0 0.0
2016-May-20 22:33N 42°49' E 010°19'0 0.0
2016-May-20 21:19N 42°49' E 010°19'0 0.1
2016-May-20 19:28N 42°49' E 010°20'1314.0
2016-May-20 18:33N 42°56' E 010°34'7 7.0
2016-May-20 17:34N 42°53' E 010°25'6 6.0
2016-May-20 16:33N 42°49' E 010°19'6 6.2
2016-May-20 15:33N 42°53' E 010°26'3 2.9
2016-May-20 14:20N 42°54' E 010°30'3 0.6
2016-May-20 09:32N 42°56' E 010°33'1312.5
2016-May-20 08:32N 42°49' E 010°19'0 0.3
2016-May-20 07:09N 42°48' E 010°20'12 1.0
2016-May-19 18:08N 42°56' E 010°33'813.8
2016-May-19 17:32N 42°53' E 010°23'  

Dump ship's entire track history